TVF10BA LFPO-LFBZ
Flight info
| Callsign | TVF10BA |
|---|---|
| Flight time | 1h 6m |
| Altitude | 35000 |
| Route | AGOPA DCT ARKIP DCT ARMAL DCT ARTAX DCT BEBIX DCT LMG DCT UVELI DCT OSMOB DCT VAVIX DCT MAGEC |
| Aircraft | B738/M-SDE2E3FGHIRWXY/LB1 |
Departure
| Time | 2026-04-22 13:57 |
|---|---|
| Airport | Paris-Orly Airport (LFPO) |
Arrival
| Time | 2026-04-22 15:03 |
|---|---|
| Airport | Biarritz Pays Basque airport (LFBZ) |
| Time | Latitude | Longitude | Altitude | Speed | Heading |
|---|---|---|---|---|---|
| 2026-04-22 13:36 | 48.72567 | 2.36133 | 301 ft | 0 kts | 348° |
| 2026-04-22 13:52 | 48.72564 | 2.36134 | 308 ft | 6 kts | 348° |
| 2026-04-22 13:53 | 48.72524 | 2.36147 | 312 ft | 6 kts | 348° |
| 2026-04-22 13:53 | 48.72488 | 2.36131 | 310 ft | 6 kts | 64° |
| 2026-04-22 13:53 | 48.72486 | 2.36126 | 313 ft | 0 kts | 72° |
| 2026-04-22 13:54 | 48.72488 | 2.36136 | 311 ft | 10 kts | 72° |
| 2026-04-22 13:55 | 48.72439 | 2.36243 | 310 ft | 15 kts | 165° |
| 2026-04-22 13:55 | 48.72315 | 2.36295 | 312 ft | 19 kts | 152° |
| 2026-04-22 13:55 | 48.72229 | 2.36442 | 311 ft | 20 kts | 118° |
| 2026-04-22 13:55 | 48.72144 | 2.36550 | 309 ft | 12 kts | 161° |
| 2026-04-22 13:56 | 48.72088 | 2.36638 | 311 ft | 12 kts | 85° |
| 2026-04-22 13:56 | 48.72096 | 2.36696 | 310 ft | 0 kts | 72° |
| 2026-04-22 13:56 | 48.72098 | 2.36706 | 311 ft | 3 kts | 72° |
| 2026-04-22 13:56 | 48.72113 | 2.36783 | 309 ft | 12 kts | 74° |
| 2026-04-22 13:57 | 48.72206 | 2.37295 | 306 ft | 94 kts | 76° |
| 2026-04-22 13:57 | 48.72444 | 2.38594 | 471 ft | 149 kts | 77° |
| 2026-04-22 13:57 | 48.72723 | 2.40201 | 1279 ft | 169 kts | 77° |
| 2026-04-22 13:57 | 48.73018 | 2.41772 | 2862 ft | 142 kts | 75° |
| 2026-04-22 13:58 | 48.73265 | 2.43160 | 4063 ft | 134 kts | 77° |
| 2026-04-22 13:58 | 48.73546 | 2.44611 | 4663 ft | 160 kts | 75° |
| 2026-04-22 13:58 | 48.73889 | 2.46394 | 5011 ft | 191 kts | 77° |
| 2026-04-22 13:58 | 48.74109 | 2.48530 | 5288 ft | 217 kts | 88° |
| 2026-04-22 13:59 | 48.74184 | 2.50835 | 5975 ft | 221 kts | 89° |
| 2026-04-22 13:59 | 48.74250 | 2.53190 | 6619 ft | 225 kts | 89° |
| 2026-04-22 13:59 | 48.74278 | 2.55585 | 7181 ft | 229 kts | 97° |
| 2026-04-22 13:59 | 48.73703 | 2.57838 | 7783 ft | 234 kts | 123° |
| 2026-04-22 14:00 | 48.72501 | 2.59544 | 8351 ft | 245 kts | 146° |
| 2026-04-22 14:00 | 48.70909 | 2.60450 | 9033 ft | 250 kts | 160° |
| 2026-04-22 14:00 | 48.69200 | 2.61051 | 9714 ft | 252 kts | 163° |
| 2026-04-22 14:00 | 48.67469 | 2.61628 | 10264 ft | 258 kts | 163° |
| 2026-04-22 14:01 | 48.65699 | 2.62117 | 10820 ft | 264 kts | 174° |
| 2026-04-22 14:01 | 48.63873 | 2.61524 | 11313 ft | 278 kts | 202° |
| 2026-04-22 14:01 | 48.62338 | 2.59698 | 11855 ft | 286 kts | 226° |
| 2026-04-22 14:01 | 48.61048 | 2.57382 | 12394 ft | 293 kts | 229° |
| 2026-04-22 14:02 | 48.59717 | 2.54903 | 12577 ft | 316 kts | 230° |
| 2026-04-22 14:02 | 48.58278 | 2.52220 | 12822 ft | 339 kts | 230° |
| 2026-04-22 14:02 | 48.56754 | 2.49403 | 13346 ft | 351 kts | 230° |
| 2026-04-22 14:02 | 48.55193 | 2.46550 | 14165 ft | 354 kts | 231° |
| 2026-04-22 14:03 | 48.53610 | 2.43678 | 14943 ft | 357 kts | 231° |
| 2026-04-22 14:03 | 48.52016 | 2.40792 | 15680 ft | 361 kts | 232° |
| 2026-04-22 14:03 | 48.50398 | 2.37864 | 16377 ft | 366 kts | 233° |
| 2026-04-22 14:03 | 48.48755 | 2.34899 | 17059 ft | 371 kts | 233° |
| 2026-04-22 14:04 | 48.47100 | 2.31913 | 17849 ft | 372 kts | 233° |
| 2026-04-22 14:04 | 48.45436 | 2.28916 | 18572 ft | 374 kts | 234° |
| 2026-04-22 14:04 | 48.43754 | 2.25889 | 19164 ft | 379 kts | 234° |
| 2026-04-22 14:04 | 48.42056 | 2.22836 | 19750 ft | 382 kts | 234° |
| 2026-04-22 14:05 | 48.40344 | 2.19760 | 20342 ft | 385 kts | 234° |
| 2026-04-22 14:05 | 48.38614 | 2.16656 | 20926 ft | 389 kts | 234° |
| 2026-04-22 14:05 | 48.35108 | 2.10375 | 22061 ft | 396 kts | 234° |
| 2026-04-22 14:06 | 48.33326 | 2.07188 | 22609 ft | 400 kts | 234° |
| 2026-04-22 14:06 | 48.31502 | 2.04012 | 23146 ft | 406 kts | 229° |
| 2026-04-22 14:06 | 48.29159 | 2.01548 | 23649 ft | 420 kts | 208° |
| 2026-04-22 14:06 | 48.26318 | 2.00359 | 24131 ft | 431 kts | 187° |
| 2026-04-22 14:07 | 48.23312 | 2.00326 | 24679 ft | 433 kts | 181° |
| 2026-04-22 14:07 | 48.20289 | 2.00495 | 25159 ft | 436 kts | 180° |
| 2026-04-22 14:07 | 48.17254 | 2.00678 | 25608 ft | 438 kts | 181° |
| 2026-04-22 14:07 | 48.14203 | 2.00822 | 26063 ft | 440 kts | 182° |
| 2026-04-22 14:08 | 48.11139 | 2.00927 | 26531 ft | 441 kts | 182° |
| 2026-04-22 14:08 | 48.08067 | 2.01015 | 26992 ft | 443 kts | 182° |
| 2026-04-22 14:08 | 48.04981 | 2.01145 | 27440 ft | 445 kts | 182° |
| 2026-04-22 14:08 | 48.01879 | 2.01323 | 27866 ft | 447 kts | 181° |
| 2026-04-22 14:09 | 47.98768 | 2.01517 | 28268 ft | 449 kts | 182° |
| 2026-04-22 14:09 | 47.95638 | 2.01714 | 28670 ft | 451 kts | 182° |
| 2026-04-22 14:09 | 47.92498 | 2.01908 | 29072 ft | 453 kts | 182° |
| 2026-04-22 14:09 | 47.89341 | 2.02096 | 29464 ft | 455 kts | 182° |
| 2026-04-22 14:10 | 47.86171 | 2.02282 | 29859 ft | 456 kts | 182° |
| 2026-04-22 14:10 | 47.83009 | 2.02467 | 30385 ft | 453 kts | 182° |
| 2026-04-22 14:10 | 47.79910 | 2.02647 | 30868 ft | 451 kts | 182° |
| 2026-04-22 14:10 | 47.76771 | 2.02828 | 31207 ft | 452 kts | 182° |
| 2026-04-22 14:11 | 47.73621 | 2.03007 | 31499 ft | 454 kts | 182° |
| 2026-04-22 14:11 | 47.70468 | 2.03188 | 31861 ft | 454 kts | 182° |
| 2026-04-22 14:11 | 47.67314 | 2.03369 | 32252 ft | 453 kts | 182° |
| 2026-04-22 14:11 | 47.64166 | 2.03550 | 32604 ft | 453 kts | 182° |
| 2026-04-22 14:12 | 47.61007 | 2.03732 | 32915 ft | 454 kts | 182° |
| 2026-04-22 14:12 | 47.57844 | 2.03916 | 33229 ft | 455 kts | 183° |
| 2026-04-22 14:12 | 47.54682 | 2.04101 | 33549 ft | 456 kts | 183° |
| 2026-04-22 14:12 | 47.51511 | 2.04286 | 33865 ft | 456 kts | 183° |
| 2026-04-22 14:13 | 47.48333 | 2.04472 | 34169 ft | 457 kts | 183° |
| 2026-04-22 14:13 | 47.45161 | 2.04658 | 34466 ft | 456 kts | 183° |
| 2026-04-22 14:13 | 47.41990 | 2.04843 | 34788 ft | 455 kts | 182° |
| 2026-04-22 14:13 | 47.38826 | 2.05027 | 35078 ft | 455 kts | 182° |
| 2026-04-22 14:14 | 47.35649 | 2.05204 | 35089 ft | 458 kts | 184° |
| 2026-04-22 14:14 | 47.29401 | 2.04298 | 35113 ft | 448 kts | 195° |
| 2026-04-22 14:15 | 47.23288 | 2.02659 | 35092 ft | 445 kts | 196° |
| 2026-04-22 14:15 | 47.17202 | 2.01041 | 35101 ft | 444 kts | 195° |
| 2026-04-22 14:16 | 47.11117 | 1.99479 | 35093 ft | 444 kts | 195° |
| 2026-04-22 14:16 | 47.05034 | 1.97945 | 35083 ft | 443 kts | 195° |
| 2026-04-22 14:17 | 46.98954 | 1.96419 | 35078 ft | 443 kts | 195° |
| 2026-04-22 14:17 | 46.92874 | 1.94894 | 35078 ft | 443 kts | 195° |
| 2026-04-22 14:18 | 46.86789 | 1.93372 | 35073 ft | 444 kts | 195° |
| 2026-04-22 14:18 | 46.80699 | 1.91852 | 35072 ft | 445 kts | 195° |
| 2026-04-22 14:19 | 46.74593 | 1.90331 | 35073 ft | 445 kts | 195° |
| 2026-04-22 14:19 | 46.68485 | 1.88812 | 35068 ft | 446 kts | 195° |
| 2026-04-22 14:20 | 46.59310 | 1.86539 | 35067 ft | 446 kts | 195° |
| 2026-04-22 14:20 | 46.53193 | 1.85029 | 35061 ft | 446 kts | 195° |
| 2026-04-22 14:21 | 46.44031 | 1.82771 | 35058 ft | 445 kts | 194° |
| 2026-04-22 14:22 | 46.34923 | 1.80534 | 35054 ft | 444 kts | 194° |
| 2026-04-22 14:23 | 46.26019 | 1.77399 | 35057 ft | 432 kts | 211° |
| 2026-04-22 14:23 | 46.21125 | 1.72675 | 35059 ft | 420 kts | 226° |
| 2026-04-22 14:24 | 46.16740 | 1.67112 | 35048 ft | 420 kts | 227° |
| 2026-04-22 14:24 | 46.12340 | 1.61565 | 35041 ft | 420 kts | 226° |
| 2026-04-22 14:25 | 46.07910 | 1.56058 | 35041 ft | 421 kts | 226° |
| 2026-04-22 14:25 | 46.03462 | 1.50559 | 35031 ft | 422 kts | 226° |
| 2026-04-22 14:26 | 45.99006 | 1.45059 | 35024 ft | 422 kts | 226° |
| 2026-04-22 14:26 | 45.94858 | 1.39200 | 35023 ft | 414 kts | 238° |
| 2026-04-22 14:27 | 45.92024 | 1.32137 | 35025 ft | 407 kts | 248° |
| 2026-04-22 14:27 | 45.89507 | 1.24853 | 35021 ft | 407 kts | 248° |
| 2026-04-22 14:28 | 45.86953 | 1.17598 | 35021 ft | 407 kts | 248° |
| 2026-04-22 14:28 | 45.84373 | 1.10357 | 35022 ft | 408 kts | 247° |
| 2026-04-22 14:29 | 45.81541 | 1.03290 | 35018 ft | 413 kts | 237° |
| 2026-04-22 14:29 | 45.77437 | 0.97415 | 35032 ft | 421 kts | 225° |
| 2026-04-22 14:30 | 45.72901 | 0.92072 | 35011 ft | 422 kts | 224° |
| 2026-04-22 14:30 | 45.68363 | 0.86734 | 35007 ft | 422 kts | 225° |
| 2026-04-22 14:31 | 45.63873 | 0.81412 | 34993 ft | 422 kts | 225° |
| 2026-04-22 14:31 | 45.59360 | 0.76045 | 34999 ft | 422 kts | 225° |
| 2026-04-22 14:32 | 45.55579 | 0.71553 | 34991 ft | 422 kts | 225° |
| 2026-04-22 14:32 | 45.50330 | 0.65331 | 34982 ft | 422 kts | 225° |
| 2026-04-22 14:33 | 45.46544 | 0.60854 | 34979 ft | 422 kts | 225° |
| 2026-04-22 14:33 | 45.42021 | 0.55516 | 34981 ft | 422 kts | 225° |
| 2026-04-22 14:34 | 45.37581 | 0.50296 | 34965 ft | 408 kts | 225° |
| 2026-04-22 14:34 | 45.33221 | 0.45170 | 34978 ft | 407 kts | 225° |
| 2026-04-22 14:35 | 45.28877 | 0.40073 | 34961 ft | 398 kts | 225° |
| 2026-04-22 14:35 | 45.26775 | 0.37619 | 34951 ft | 385 kts | 225° |
| 2026-04-22 14:35 | 45.24744 | 0.35249 | 34956 ft | 372 kts | 225° |
| 2026-04-22 14:35 | 45.22782 | 0.32960 | 34950 ft | 359 kts | 225° |
| 2026-04-22 14:36 | 45.20888 | 0.30746 | 34965 ft | 358 kts | 225° |
| 2026-04-22 14:36 | 45.16971 | 0.26155 | 34980 ft | 373 kts | 225° |
| 2026-04-22 14:37 | 45.12903 | 0.21413 | 34975 ft | 381 kts | 225° |
| 2026-04-22 14:37 | 45.08828 | 0.16686 | 34958 ft | 374 kts | 225° |
| 2026-04-22 14:38 | 45.04832 | 0.12054 | 34963 ft | 371 kts | 225° |
| 2026-04-22 14:38 | 45.00821 | 0.07409 | 34978 ft | 374 kts | 225° |
| 2026-04-22 14:39 | 44.96786 | 0.02749 | 34975 ft | 376 kts | 225° |
| 2026-04-22 14:39 | 44.94753 | 0.00402 | 34166 ft | 384 kts | 224° |
| 2026-04-22 14:39 | 44.92588 | -0.02111 | 32208 ft | 416 kts | 224° |
| 2026-04-22 14:40 | 44.87989 | -0.07409 | 29699 ft | 432 kts | 223° |
| 2026-04-22 14:40 | 44.85654 | -0.10085 | 28431 ft | 433 kts | 223° |
| 2026-04-22 14:40 | 44.83312 | -0.12765 | 27224 ft | 434 kts | 222° |
| 2026-04-22 14:40 | 44.80969 | -0.15447 | 26063 ft | 433 kts | 222° |
| 2026-04-22 14:41 | 44.78636 | -0.18117 | 24944 ft | 432 kts | 221° |
| 2026-04-22 14:41 | 44.76306 | -0.20783 | 23877 ft | 431 kts | 221° |
| 2026-04-22 14:41 | 44.74035 | -0.23375 | 23672 ft | 408 kts | 221° |
| 2026-04-22 14:41 | 44.71882 | -0.25832 | 23374 ft | 389 kts | 221° |
| 2026-04-22 14:42 | 44.69826 | -0.28179 | 23090 ft | 373 kts | 221° |
| 2026-04-22 14:42 | 44.67854 | -0.30428 | 22789 ft | 358 kts | 221° |
| 2026-04-22 14:42 | 44.65954 | -0.32590 | 22516 ft | 345 kts | 221° |
| 2026-04-22 14:42 | 44.64103 | -0.34633 | 22230 ft | 333 kts | 219° |
| 2026-04-22 14:43 | 44.62242 | -0.36482 | 21962 ft | 323 kts | 217° |
| 2026-04-22 14:43 | 44.60401 | -0.38236 | 21680 ft | 317 kts | 217° |
| 2026-04-22 14:43 | 44.58565 | -0.39977 | 21464 ft | 323 kts | 217° |
| 2026-04-22 14:43 | 44.56686 | -0.41764 | 21224 ft | 329 kts | 217° |
| 2026-04-22 14:44 | 44.54790 | -0.43574 | 20964 ft | 329 kts | 217° |
| 2026-04-22 14:44 | 44.52926 | -0.45355 | 20719 ft | 319 kts | 217° |
| 2026-04-22 14:44 | 44.51119 | -0.47084 | 20401 ft | 311 kts | 217° |
| 2026-04-22 14:44 | 44.49362 | -0.48769 | 20119 ft | 302 kts | 217° |
| 2026-04-22 14:45 | 44.47645 | -0.50416 | 19815 ft | 296 kts | 217° |
| 2026-04-22 14:45 | 44.45955 | -0.52040 | 19526 ft | 293 kts | 217° |
| 2026-04-22 14:45 | 44.44281 | -0.53643 | 19220 ft | 292 kts | 217° |
| 2026-04-22 14:45 | 44.42586 | -0.55275 | 18947 ft | 302 kts | 217° |
| 2026-04-22 14:46 | 44.40816 | -0.56974 | 18636 ft | 312 kts | 217° |
| 2026-04-22 14:46 | 44.39040 | -0.58671 | 18300 ft | 306 kts | 217° |
| 2026-04-22 14:46 | 44.37305 | -0.60327 | 17932 ft | 299 kts | 217° |
| 2026-04-22 14:46 | 44.35614 | -0.61941 | 17627 ft | 290 kts | 217° |
| 2026-04-22 14:47 | 44.33972 | -0.63510 | 17335 ft | 283 kts | 217° |
| 2026-04-22 14:47 | 44.32352 | -0.65052 | 17028 ft | 280 kts | 217° |
| 2026-04-22 14:47 | 44.30754 | -0.66578 | 16781 ft | 279 kts | 217° |
| 2026-04-22 14:47 | 44.29127 | -0.68131 | 16469 ft | 289 kts | 217° |
| 2026-04-22 14:48 | 44.27437 | -0.69746 | 16177 ft | 297 kts | 217° |
| 2026-04-22 14:48 | 44.25757 | -0.71349 | 15947 ft | 288 kts | 217° |
| 2026-04-22 14:48 | 44.24123 | -0.72909 | 15658 ft | 282 kts | 217° |
| 2026-04-22 14:48 | 44.22525 | -0.74433 | 15344 ft | 274 kts | 217° |
| 2026-04-22 14:49 | 44.20967 | -0.75919 | 15068 ft | 269 kts | 217° |
| 2026-04-22 14:49 | 44.19429 | -0.77388 | 14800 ft | 267 kts | 217° |
| 2026-04-22 14:49 | 44.17893 | -0.78855 | 14543 ft | 271 kts | 217° |
| 2026-04-22 14:49 | 44.16298 | -0.80380 | 14270 ft | 284 kts | 217° |
| 2026-04-22 14:50 | 44.14681 | -0.81923 | 13962 ft | 285 kts | 217° |
| 2026-04-22 14:50 | 44.13042 | -0.83482 | 13625 ft | 277 kts | 217° |
| 2026-04-22 14:50 | 44.11471 | -0.84974 | 13298 ft | 269 kts | 216° |
| 2026-04-22 14:50 | 44.09965 | -0.86405 | 13002 ft | 262 kts | 216° |
| 2026-04-22 14:51 | 44.08478 | -0.87817 | 12749 ft | 257 kts | 216° |
| 2026-04-22 14:51 | 44.07006 | -0.89216 | 12477 ft | 256 kts | 216° |
| 2026-04-22 14:51 | 44.05517 | -0.90631 | 12213 ft | 264 kts | 216° |
| 2026-04-22 14:51 | 44.03969 | -0.92102 | 11939 ft | 275 kts | 216° |
| 2026-04-22 14:52 | 44.02396 | -0.93593 | 11617 ft | 271 kts | 216° |
| 2026-04-22 14:52 | 44.00861 | -0.95046 | 11321 ft | 263 kts | 216° |
| 2026-04-22 14:52 | 43.99372 | -0.96455 | 11057 ft | 255 kts | 216° |
| 2026-04-22 14:52 | 43.97921 | -0.97827 | 10782 ft | 250 kts | 215° |
| 2026-04-22 14:53 | 43.96487 | -0.99184 | 10523 ft | 250 kts | 215° |
| 2026-04-22 14:53 | 43.95052 | -1.00540 | 10262 ft | 250 kts | 215° |
| 2026-04-22 14:53 | 43.93607 | -1.01905 | 10132 ft | 251 kts | 215° |
| 2026-04-22 14:53 | 43.92141 | -1.03289 | 9901 ft | 259 kts | 215° |
| 2026-04-22 14:54 | 43.90654 | -1.04692 | 9595 ft | 256 kts | 215° |
| 2026-04-22 14:54 | 43.89203 | -1.06061 | 9322 ft | 248 kts | 215° |
| 2026-04-22 14:54 | 43.87800 | -1.07381 | 9059 ft | 240 kts | 215° |
| 2026-04-22 14:54 | 43.86434 | -1.08668 | 8804 ft | 236 kts | 215° |
| 2026-04-22 14:55 | 43.85077 | -1.09945 | 8565 ft | 236 kts | 215° |
| 2026-04-22 14:55 | 43.83716 | -1.11226 | 8322 ft | 237 kts | 215° |
| 2026-04-22 14:55 | 43.82343 | -1.12518 | 8073 ft | 242 kts | 215° |
| 2026-04-22 14:55 | 43.80925 | -1.13852 | 7820 ft | 251 kts | 215° |
| 2026-04-22 14:56 | 43.79475 | -1.15214 | 7539 ft | 250 kts | 215° |
| 2026-04-22 14:56 | 43.78055 | -1.16545 | 7261 ft | 243 kts | 215° |
| 2026-04-22 14:56 | 43.76679 | -1.17834 | 6990 ft | 235 kts | 215° |
| 2026-04-22 14:56 | 43.75340 | -1.19084 | 6744 ft | 230 kts | 213° |
| 2026-04-22 14:57 | 43.73851 | -1.19872 | 6521 ft | 231 kts | 192° |
| 2026-04-22 14:57 | 43.72260 | -1.20239 | 6290 ft | 234 kts | 192° |
| 2026-04-22 14:57 | 43.70636 | -1.20620 | 6025 ft | 241 kts | 192° |
| 2026-04-22 14:57 | 43.68949 | -1.21022 | 5763 ft | 251 kts | 193° |
| 2026-04-22 14:58 | 43.67230 | -1.21432 | 5469 ft | 248 kts | 193° |
| 2026-04-22 14:58 | 43.65552 | -1.21832 | 5171 ft | 242 kts | 193° |
| 2026-04-22 14:58 | 43.63915 | -1.22224 | 4904 ft | 236 kts | 193° |
| 2026-04-22 14:58 | 43.62301 | -1.22613 | 4623 ft | 237 kts | 193° |
| 2026-04-22 14:59 | 43.60660 | -1.23009 | 4354 ft | 243 kts | 194° |
| 2026-04-22 14:59 | 43.52189 | -1.25305 | 4104 ft | 254 kts | 192° |
| 2026-04-22 14:59 | 43.50462 | -1.25625 | 4042 ft | 245 kts | 192° |
| 2026-04-22 14:59 | 43.48832 | -1.26134 | 3638 ft | 237 kts | 214° |
| 2026-04-22 15:00 | 43.47817 | -1.27664 | 3485 ft | 211 kts | 253° |
| 2026-04-22 15:00 | 43.46926 | -1.33806 | 3073 ft | 195 kts | 272° |
| 2026-04-22 15:00 | 43.47033 | -1.35674 | 2483 ft | 194 kts | 276° |
| 2026-04-22 15:00 | 43.47015 | -1.37486 | 2159 ft | 183 kts | 271° |
| 2026-04-22 15:01 | 43.46986 | -1.39172 | 1928 ft | 171 kts | 271° |
| 2026-04-22 15:01 | 43.46965 | -1.40762 | 1714 ft | 161 kts | 272° |
| 2026-04-22 15:01 | 43.46950 | -1.42231 | 1520 ft | 146 kts | 272° |
| 2026-04-22 15:01 | 43.46933 | -1.43574 | 1337 ft | 136 kts | 272° |
| 2026-04-22 15:02 | 43.46920 | -1.44881 | 1115 ft | 135 kts | 270° |
| 2026-04-22 15:02 | 43.46906 | -1.46158 | 936 ft | 131 kts | 268° |
| 2026-04-22 15:02 | 43.46891 | -1.47401 | 761 ft | 132 kts | 268° |
| 2026-04-22 15:02 | 43.46878 | -1.48661 | 585 ft | 132 kts | 270° |
| 2026-04-22 15:03 | 43.46867 | -1.49922 | 392 ft | 131 kts | 269° |
| 2026-04-22 15:03 | 43.46851 | -1.51135 | 252 ft | 124 kts | 269° |
| 2026-04-22 15:03 | 43.46840 | -1.52273 | 239 ft | 95 kts | 270° |
| 2026-04-22 15:03 | 43.46837 | -1.52897 | 245 ft | 39 kts | 269° |
| 2026-04-22 15:04 | 43.46888 | -1.53153 | 246 ft | 17 kts | 327° |
| 2026-04-22 15:04 | 43.46992 | -1.53202 | 247 ft | 13 kts | 360° |
| 2026-04-22 15:04 | 43.47047 | -1.53149 | 247 ft | 8 kts | 71° |
| 2026-04-22 15:04 | 43.47091 | -1.53108 | 246 ft | 8 kts | 14° |
| 2026-04-22 15:05 | 43.47127 | -1.53091 | 246 ft | 0 kts | 19° |